createdAt,value
2023-04-08T00:01:41.432Z,102326.53
2023-04-08T00:06:44.610Z,102321.88
2023-04-08T00:11:40.338Z,102314.97
2023-04-08T00:16:31.639Z,102312.38
2023-04-08T00:21:24.896Z,102315.75
2023-04-08T00:26:17.429Z,102315.72
2023-04-08T00:31:10.391Z,102316.53
2023-04-08T00:36:07.169Z,102317.34
2023-04-08T00:40:57.090Z,102316.44
2023-04-08T00:46:01.879Z,102319.78
2023-04-08T00:50:56.757Z,102327.56
2023-04-08T00:55:52.297Z,102329.34
2023-04-08T01:00:50.410Z,102326.81
2023-04-08T01:05:54.893Z,102328.63
2023-04-08T01:10:54.810Z,102328.53
2023-04-08T01:15:50.105Z,102335.25
2023-04-08T01:20:42.360Z,102335.41
2023-04-08T01:25:36.545Z,102322.50
2023-04-08T01:30:31.972Z,102335.53
2023-04-08T01:35:28.902Z,102332.00
2023-04-08T01:40:23.050Z,102332.91
2023-04-08T01:45:18.940Z,102333.00
2023-04-08T01:50:17.324Z,102344.16
2023-04-08T01:55:12.833Z,102330.28
2023-04-08T02:00:10.402Z,102345.91
2023-04-08T02:05:19.530Z,102344.31
2023-04-08T02:10:11.625Z,102336.31
2023-04-08T02:15:02.331Z,102344.09
2023-04-08T02:20:10.633Z,102346.59
2023-04-08T02:25:08.771Z,102339.84
2023-04-08T02:30:07.045Z,102350.31
2023-04-08T02:35:04.660Z,102344.94
2023-04-08T02:39:59.512Z,102349.25
2023-04-08T02:44:57.673Z,102350.94
2023-04-08T02:49:53.837Z,102355.19
2023-04-08T02:54:45.567Z,102357.03
2023-04-08T02:59:41.128Z,102355.31
2023-04-08T03:04:34.452Z,102357.69
2023-04-08T03:09:28.186Z,102365.66
2023-04-08T03:14:20.379Z,102370.06
2023-04-08T03:19:11.942Z,102365.59
2023-04-08T03:24:07.076Z,102372.59
2023-04-08T03:29:03.698Z,102373.53
2023-04-08T03:33:57.297Z,102372.59
2023-04-08T03:38:48.518Z,102379.50
2023-04-08T03:43:47.358Z,102386.38
2023-04-08T03:48:40.660Z,102389.75
2023-04-08T03:53:34.391Z,102385.22
2023-04-08T03:58:26.767Z,102386.09
2023-04-08T04:03:21.002Z,102367.78
2023-04-08T04:08:13.741Z,102386.88
2023-04-08T04:13:06.211Z,102391.25
2023-04-08T04:17:58.295Z,102396.31
2023-04-08T04:22:54.908Z,102396.16
2023-04-08T04:27:51.414Z,102404.75
2023-04-08T04:32:49.870Z,102404.50
2023-04-08T04:37:44.376Z,102414.06
2023-04-08T04:42:38.212Z,102413.59
2023-04-08T04:47:32.984Z,102429.31
2023-04-08T04:52:27.527Z,102436.91
2023-04-08T04:57:21.133Z,102433.00
2023-04-08T05:02:15.835Z,102443.94
2023-04-08T05:07:14.524Z,102449.00
2023-04-08T05:12:05.351Z,102451.38
2023-04-08T05:17:00.030Z,102455.75
2023-04-08T05:22:02.346Z,102455.56
2023-04-08T05:26:53.621Z,102454.84
2023-04-08T05:31:46.008Z,102464.97
2023-04-08T05:36:37.381Z,102460.72
2023-04-08T05:41:31.461Z,102467.59
2023-04-08T05:46:23.345Z,102470.72
2023-04-08T05:51:18.517Z,102483.50
2023-04-08T05:56:09.436Z,102484.06
2023-04-08T06:01:09.068Z,102485.91
2023-04-08T06:06:03.721Z,102495.47
2023-04-08T06:10:55.764Z,102508.44
2023-04-08T06:15:49.150Z,102498.94
2023-04-08T06:20:45.175Z,102509.44
2023-04-08T06:25:37.960Z,102511.72
2023-04-08T06:30:29.346Z,102521.22
2023-04-08T06:35:25.788Z,102531.63
2023-04-08T06:40:23.088Z,102541.66
2023-04-08T06:45:17.169Z,102543.38
2023-04-08T06:50:10.523Z,102556.16
2023-04-08T06:55:03.357Z,102561.06
2023-04-08T06:59:58.032Z,102563.69
2023-04-08T07:04:49.906Z,102569.69
2023-04-08T07:09:46.827Z,102577.56
2023-04-08T07:14:40.511Z,102579.63
2023-04-08T07:19:38.737Z,102588.53
2023-04-08T07:24:32.311Z,102584.31
2023-04-08T07:29:29.540Z,102593.00
2023-04-08T07:34:26.708Z,102589.63
2023-04-08T07:39:25.101Z,102590.72
2023-04-08T07:44:20.356Z,102593.69
2023-04-08T07:49:15.480Z,102600.75
2023-04-08T07:54:06.275Z,102608.78
2023-04-08T07:59:03.335Z,102602.06
2023-04-08T08:03:55.518Z,102609.25
2023-04-08T08:08:49.997Z,102612.88
2023-04-08T08:13:44.102Z,102625.84
2023-04-08T08:18:43.697Z,102624.94
2023-04-08T08:23:34.757Z,102626.22
2023-04-08T08:28:27.492Z,102630.69
2023-04-08T08:33:18.226Z,102620.31
2023-04-08T08:38:13.688Z,102634.53
2023-04-08T08:43:07.948Z,102635.44
2023-04-08T08:48:00.650Z,102639.88
2023-04-08T08:52:56.245Z,102647.28
2023-04-08T08:57:53.849Z,102645.69
2023-04-08T09:02:45.777Z,102641.72
2023-04-08T09:07:43.143Z,102639.53
2023-04-08T09:12:40.199Z,102651.22
2023-04-08T09:17:41.934Z,102652.47
2023-04-08T09:22:36.553Z,102648.31
2023-04-08T09:27:38.560Z,102661.66
2023-04-08T09:32:56.056Z,102659.66
2023-04-08T09:37:50.393Z,102656.03
2023-04-08T09:42:47.339Z,102656.34
2023-04-08T09:47:53.328Z,102656.44
2023-04-08T09:52:55.912Z,102647.31
2023-04-08T09:57:57.213Z,102656.75
2023-04-08T10:03:07.915Z,102652.00
2023-04-08T10:08:03.517Z,102649.06
2023-04-08T10:12:58.176Z,102648.44
2023-04-08T10:17:52.567Z,102647.84
2023-04-08T10:22:53.152Z,102642.69
2023-04-08T10:27:50.574Z,102627.03
2023-04-08T10:32:46.187Z,102653.25
2023-04-08T10:37:40.060Z,102650.59
2023-04-08T10:42:38.912Z,102651.50
2023-04-08T10:47:44.974Z,102643.56
2023-04-08T10:52:38.838Z,102644.47
2023-04-08T10:57:31.420Z,102648.81
2023-04-08T11:02:23.748Z,102645.34
2023-04-08T11:07:18.444Z,102645.34
2023-04-08T11:12:09.423Z,102655.84
2023-04-08T11:17:02.469Z,102642.72
2023-04-08T11:22:05.453Z,102640.13
2023-04-08T11:26:59.962Z,102638.34
2023-04-08T11:31:55.448Z,102640.13
2023-04-08T11:36:48.756Z,102641.03
2023-04-08T11:41:44.153Z,102639.28
2023-04-08T11:46:43.836Z,102639.28
2023-04-08T11:51:36.031Z,102637.44
2023-04-08T11:56:27.398Z,102626.88
2023-04-08T12:01:22.214Z,102618.22
2023-04-08T12:06:18.147Z,102630.50
2023-04-08T12:11:19.493Z,102618.22
2023-04-08T12:16:14.780Z,102614.63
2023-04-08T12:26:18.389Z,102610.44
2023-04-08T12:31:09.516Z,102607.78
2023-04-08T12:36:02.097Z,102614.78
2023-04-08T12:40:52.936Z,102613.06
2023-04-08T12:45:49.428Z,102613.06
2023-04-08T12:50:40.079Z,102608.63
2023-04-08T12:55:31.299Z,102607.69
2023-04-08T13:00:23.017Z,102608.50
2023-04-08T13:05:19.809Z,102606.78
2023-04-08T13:10:17.485Z,102610.44
2023-04-08T13:15:11.320Z,102600.78
2023-04-08T13:20:16.436Z,102592.88
2023-04-08T13:25:11.287Z,102592.03
2023-04-08T13:30:01.698Z,102584.91
2023-04-08T13:34:52.350Z,102579.81
2023-04-08T13:39:42.734Z,102581.53
2023-04-08T13:44:36.558Z,102577.91
2023-04-08T13:49:28.406Z,102577.19
2023-04-08T13:54:21.928Z,102575.25
2023-04-08T13:59:14.131Z,102579.75
2023-04-08T14:04:09.992Z,102573.53
2023-04-08T14:09:02.012Z,102576.91
2023-04-08T14:13:54.207Z,102576.97
2023-04-08T14:18:45.034Z,102570.09
2023-04-08T14:23:41.803Z,102569.59
2023-04-08T14:28:35.357Z,102569.41
2023-04-08T14:33:28.049Z,102572.81
2023-04-08T14:38:19.329Z,102565.94
2023-04-08T14:43:14.374Z,102562.81
2023-04-08T14:48:12.309Z,102554.16
2023-04-08T14:53:03.431Z,102552.59
2023-04-08T14:57:54.131Z,102554.38
2023-04-08T15:02:47.687Z,102557.13
2023-04-08T15:07:42.601Z,102566.81
2023-04-08T15:12:33.948Z,102565.94
2023-04-08T15:17:26.532Z,102559.84
2023-04-08T15:22:21.335Z,102570.31
2023-04-08T15:27:14.957Z,102562.47
2023-04-08T15:32:13.706Z,102575.53
2023-04-08T15:37:04.571Z,102568.53
2023-04-08T15:42:05.786Z,102569.38
2023-04-08T15:46:58.188Z,102575.50
2023-04-08T15:51:51.791Z,102576.41
2023-04-08T15:56:53.422Z,102566.81
2023-04-08T16:01:58.608Z,102564.19
2023-04-08T16:06:50.452Z,102561.59
2023-04-08T16:11:42.429Z,102566.84
2023-04-08T16:16:38.971Z,102569.41
2023-04-08T16:21:35.662Z,102563.31
2023-04-08T16:26:28.398Z,102559.81
2023-04-08T16:31:21.973Z,102566.72
2023-04-08T16:36:16.653Z,102571.94
2023-04-08T16:41:23.149Z,102570.19
2023-04-08T16:46:16.540Z,102579.78
2023-04-08T16:51:08.704Z,102577.97
2023-04-08T16:56:02.743Z,102591.88
2023-04-08T17:00:59.982Z,102584.88
2023-04-08T17:05:51.238Z,102580.41
2023-04-08T17:10:44.501Z,102587.25
2023-04-08T17:15:35.326Z,102583.75
2023-04-08T17:20:31.806Z,102587.97
2023-04-08T17:25:22.259Z,102582.66
2023-04-08T17:30:14.052Z,102579.88
2023-04-08T17:35:04.966Z,102572.78
2023-04-08T17:39:58.454Z,102571.03
2023-04-08T17:44:52.948Z,102570.00
2023-04-08T17:49:44.090Z,102572.41
2023-04-08T17:54:37.573Z,102570.63
2023-04-08T17:59:38.143Z,102568.88
2023-04-08T18:04:30.294Z,102571.25
2023-04-08T18:09:25.545Z,102572.94
2023-04-08T18:14:18.910Z,102573.66
2023-04-08T18:19:13.545Z,102580.56
2023-04-08T18:24:06.363Z,102590.00
2023-04-08T18:28:58.261Z,102595.13
2023-04-08T18:33:49.226Z,102601.09
2023-04-08T18:39:00.246Z,102602.78
2023-04-08T18:43:58.814Z,102605.28
2023-04-08T18:48:51.366Z,102613.88
2023-04-08T18:53:43.175Z,102614.66
2023-04-08T18:58:36.256Z,102620.66
2023-04-08T19:03:28.622Z,102610.84
2023-04-08T19:08:21.280Z,102616.03
2023-04-08T19:13:15.059Z,102621.13
2023-04-08T19:18:11.109Z,102627.97
2023-04-08T19:23:03.053Z,102629.69
2023-04-08T19:27:58.452Z,102640.78
2023-04-08T19:32:49.258Z,102639.69
2023-04-08T19:37:42.327Z,102642.03
2023-04-08T19:42:33.400Z,102645.19
2023-04-08T19:47:27.988Z,102647.44
2023-04-08T19:52:18.026Z,102648.16
2023-04-08T19:57:14.486Z,102649.78
2023-04-08T20:02:09.926Z,102651.41
2023-04-08T20:07:03.925Z,102653.88
2023-04-08T20:11:57.325Z,102654.53
2023-04-08T20:16:51.058Z,102653.63
2023-04-08T20:21:41.395Z,102659.63
2023-04-08T20:26:33.233Z,102660.25
2023-04-08T20:31:31.596Z,102659.19
2023-04-08T20:36:25.549Z,102653.88
2023-04-08T20:41:20.667Z,102649.56
2023-04-08T20:46:11.147Z,102654.81
2023-04-08T20:51:01.506Z,102659.06
2023-04-08T20:56:03.125Z,102656.31
2023-04-08T21:00:56.198Z,102663.94
2023-04-08T21:06:03.748Z,102662.72
2023-04-08T21:10:54.995Z,102661.72
2023-04-08T21:15:54.816Z,102665.03
2023-04-08T21:20:45.847Z,102664.31
2023-04-08T21:25:36.834Z,102662.53
2023-04-08T21:30:28.407Z,102658.19
2023-04-08T21:35:21.670Z,102657.25
2023-04-08T21:40:16.944Z,102652.63
2023-04-08T21:45:15.909Z,102647.56
2023-04-08T21:50:09.432Z,102641.47
2023-04-08T21:55:03.256Z,102651.75
2023-04-08T21:59:54.201Z,102656.22
2023-04-08T22:04:46.850Z,102650.94
2023-04-08T22:09:37.589Z,102649.22
2023-04-08T22:14:30.893Z,102650.13
2023-04-08T22:19:24.926Z,102650.22
2023-04-08T22:24:19.073Z,102650.13
2023-04-08T22:29:11.463Z,102653.22
2023-04-08T22:34:03.961Z,102650.81
2023-04-08T22:38:57.063Z,102645.44
2023-04-08T22:43:47.614Z,102642.06
2023-04-08T22:48:38.777Z,102637.97
2023-04-08T22:53:32.736Z,102648.22
2023-04-08T22:58:24.671Z,102648.91
2023-04-08T23:03:20.781Z,102649.38
2023-04-08T23:08:14.690Z,102640.69
2023-04-08T23:13:15.697Z,102642.19
2023-04-08T23:18:08.801Z,102635.41
2023-04-08T23:23:03.025Z,102632.75
2023-04-08T23:28:02.110Z,102628.41
2023-04-08T23:32:55.416Z,102622.41
2023-04-08T23:37:49.148Z,102627.69
2023-04-08T23:42:43.093Z,102621.66
2023-04-08T23:47:42.203Z,102625.75
2023-04-08T23:52:38.041Z,102623.06
2023-04-08T23:57:30.212Z,102619.53
